Time;durP1;ratioP1;P1;durP2;ratioP2;P2;SDS_P1;SDS_P2;PMS_P1;PMS_P2;Temp;Humidity;BMP_temperature;BMP_pressure;BME280_temperature;BME280_humidity;BME280_pressure;Samples;Min_cycle;Max_cycle;Signal;HPM_P1;HPM_P2
2020/12/28 00:09:43;;;;;;;1.45;0.40;;;5.20;99.90;;;;;;6747656;88;20733;-74
2020/12/28 00:19:43;;;;;;;0.75;0.30;;;5.10;99.90;;;;;;6747638;88;20620;-75
2020/12/28 00:29:44;;;;;;;0.93;0.20;;;5.00;99.90;;;;;;6744278;88;20276;-74
2020/12/28 00:39:45;;;;;;;0.68;0.20;;;4.90;99.90;;;;;;6743644;88;20216;-74
2020/12/28 00:49:45;;;;;;;2.45;0.40;;;4.80;99.90;;;;;;6742588;88;20188;-75
2020/12/28 00:59:45;;;;;;;2.08;0.30;;;4.80;99.90;;;;;;6758366;88;20219;-74
2020/12/28 01:09:46;;;;;;;0.55;0.20;;;4.80;99.90;;;;;;6753097;88;20185;-75
2020/12/28 01:19:47;;;;;;;1.77;0.30;;;4.80;99.90;;;;;;6750562;88;20203;-74
2020/12/28 01:29:47;;;;;;;0.80;0.28;;;5.00;99.90;;;;;;6750591;87;20664;-74
2020/12/28 01:39:48;;;;;;;0.93;0.30;;;5.10;99.90;;;;;;6745478;88;20250;-74
2020/12/28 01:49:50;;;;;;;0.43;0.20;;;5.10;99.90;;;;;;6751311;87;20276;-76
2020/12/28 01:59:51;;;;;;;0.65;0.20;;;5.30;99.90;;;;;;6749050;88;20218;-75
2020/12/28 02:09:52;;;;;;;0.37;0.15;;;5.30;99.90;;;;;;6749366;88;20271;-74
2020/12/28 02:19:52;;;;;;;0.50;0.20;;;5.30;99.90;;;;;;6751918;88;20316;-74
2020/12/28 02:29:53;;;;;;;0.32;0.10;;;5.20;99.90;;;;;;6745939;88;20891;-74
2020/12/28 02:39:53;;;;;;;0.30;0.10;;;5.20;99.90;;;;;;6746520;88;20230;-74
2020/12/28 02:49:54;;;;;;;0.37;0.20;;;5.20;99.90;;;;;;6749001;88;20682;-74
2020/12/28 02:59:54;;;;;;;0.47;0.20;;;5.10;99.90;;;;;;6745963;88;20199;-75
2020/12/28 03:09:56;;;;;;;0.70;0.25;;;5.10;99.90;;;;;;6749946;88;20279;-75
2020/12/28 03:19:57;;;;;;;0.52;0.20;;;5.20;99.90;;;;;;6745997;88;20714;-74
2020/12/28 03:29:57;;;;;;;0.40;0.10;;;5.20;99.90;;;;;;6748022;88;20229;-74
2020/12/28 03:39:58;;;;;;;0.50;0.20;;;5.20;99.90;;;;;;6751882;88;20280;-75
2020/12/28 03:49:58;;;;;;;0.90;0.10;;;5.20;99.90;;;;;;6746025;87;20227;-74
2020/12/28 03:59:59;;;;;;;0.10;0.10;;;5.20;99.90;;;;;;6744686;88;20181;-75
2020/12/28 04:09:59;;;;;;;0.60;0.20;;;5.20;99.90;;;;;;6742265;88;20212;-74
2020/12/28 04:20:00;;;;;;;0.65;0.10;;;5.10;99.90;;;;;;6746976;88;20325;-74
2020/12/28 04:30:00;;;;;;;0.60;0.20;;;5.00;99.90;;;;;;6749964;88;20181;-73
2020/12/28 04:40:01;;;;;;;0.30;0.10;;;4.80;99.90;;;;;;6752183;88;20720;-75
2020/12/28 04:50:03;;;;;;;0.30;0.10;;;4.60;99.90;;;;;;6740263;88;20240;-75
2020/12/28 05:00:05;;;;;;;0.37;0.10;;;4.50;99.90;;;;;;6748149;88;20283;-75
2020/12/28 05:10:05;;;;;;;0.60;0.20;;;4.30;99.90;;;;;;6752108;88;20319;-75
2020/12/28 05:20:06;;;;;;;0.32;0.17;;;4.20;99.90;;;;;;6741325;88;20268;-74
2020/12/28 05:30:07;;;;;;;0.20;0.10;;;3.90;99.90;;;;;;6750655;88;20742;-75
2020/12/28 05:40:10;;;;;;;0.20;0.10;;;4.00;99.90;;;;;;6747604;88;20196;-75
2020/12/28 05:50:10;;;;;;;0.98;0.25;;;3.90;99.90;;;;;;6749725;88;20203;-75
2020/12/28 06:00:11;;;;;;;1.12;0.22;;;3.50;99.90;;;;;;6746823;88;20506;-76
2020/12/28 06:10:13;;;;;;;0.57;0.30;;;3.30;99.90;;;;;;6749910;88;20203;-75
2020/12/28 06:20:14;;;;;;;0.45;0.20;;;3.30;99.90;;;;;;6758164;88;20224;-75
2020/12/28 06:30:18;;;;;;;0.65;0.20;;;3.40;99.90;;;;;;6760816;88;20209;-75
2020/12/28 06:40:31;;;;;;;1.12;0.30;;;3.10;99.90;;;;;;6752513;88;20180;-74
2020/12/28 06:50:32;;;;;;;2.37;0.30;;;3.10;99.90;;;;;;6756648;88;20299;-75
2020/12/28 07:00:32;;;;;;;1.02;0.40;;;2.70;99.90;;;;;;6751287;88;20185;-75
2020/12/28 07:10:33;;;;;;;1.92;0.50;;;2.70;99.90;;;;;;6748772;88;20293;-79
2020/12/28 07:20:34;;;;;;;2.28;0.40;;;2.50;99.90;;;;;;6746782;88;20209;-75
2020/12/28 07:30:34;;;;;;;1.95;0.30;;;2.60;99.90;;;;;;6745639;88;20246;-73
2020/12/28 07:40:35;;;;;;;4.80;1.05;;;2.80;99.90;;;;;;6751577;88;20196;-73
2020/12/28 07:50:36;;;;;;;3.97;0.80;;;2.60;99.90;;;;;;6744918;88;20205;-73
2020/12/28 08:00:42;;;;;;;2.35;1.12;;;2.60;99.90;;;;;;6746500;88;20203;-74
2020/12/28 08:11:04;;;;;;;1.92;0.80;;;2.30;99.90;;;;;;6747551;88;20244;-73
2020/12/28 08:21:04;;;;;;;2.20;0.70;;;2.60;99.90;;;;;;6753527;88;20209;-73
2020/12/28 08:31:05;;;;;;;1.70;0.70;;;2.70;99.90;;;;;;6751924;88;20188;-73
2020/12/28 08:41:05;;;;;;;3.28;0.90;;;2.80;99.90;;;;;;6752430;88;20213;-73
2020/12/28 08:51:15;;;;;;;3.58;0.77;;;3.00;99.90;;;;;;6745242;87;20585;-74
2020/12/28 09:01:16;;;;;;;4.03;0.70;;;3.30;99.90;;;;;;6738262;88;20311;-73
2020/12/28 09:11:16;;;;;;;3.62;0.90;;;3.70;99.90;;;;;;6745804;88;20250;-73
2020/12/28 09:21:17;;;;;;;1.98;0.77;;;4.00;99.90;;;;;;6749150;88;20454;-74
2020/12/28 09:31:18;;;;;;;1.75;0.60;;;4.00;99.90;;;;;;6744123;88;20243;-74
2020/12/28 09:41:18;;;;;;;1.77;0.70;;;4.00;99.90;;;;;;6740126;88;20226;-74
2020/12/28 09:51:19;;;;;;;2.72;0.77;;;4.20;99.90;;;;;;6754379;87;20673;-73
2020/12/28 10:01:19;;;;;;;1.40;0.60;;;4.50;99.90;;;;;;6757222;88;20262;-73
2020/12/28 10:11:20;;;;;;;2.83;0.60;;;4.60;99.90;;;;;;6751544;88;20276;-74
2020/12/28 10:21:22;;;;;;;2.83;0.40;;;4.80;99.90;;;;;;6750544;88;20188;-74
2020/12/28 10:31:23;;;;;;;1.50;0.50;;;4.90;99.90;;;;;;6742810;88;20213;-73
2020/12/28 10:41:26;;;;;;;2.80;0.60;;;4.90;99.90;;;;;;6748781;88;20220;-73
2020/12/28 10:51:26;;;;;;;2.67;0.50;;;5.00;99.90;;;;;;6753603;88;20668;-74
2020/12/28 11:01:27;;;;;;;1.87;0.80;;;5.10;99.90;;;;;;6742910;88;20202;-74
2020/12/28 11:11:28;;;;;;;2.08;0.60;;;5.50;99.90;;;;;;6748207;88;20192;-74
2020/12/28 11:21:29;;;;;;;1.77;1.00;;;6.00;99.90;;;;;;6743806;88;20333;-73
2020/12/28 11:31:29;;;;;;;2.15;0.95;;;5.80;99.90;;;;;;6749135;88;20687;-74
2020/12/28 11:41:30;;;;;;;2.75;0.90;;;5.80;99.90;;;;;;6748015;88;20640;-73
2020/12/28 11:51:30;;;;;;;1.40;0.70;;;5.60;99.90;;;;;;6740439;88;20694;-74
2020/12/28 12:11:35;;;;;;;2.20;0.62;;;5.70;99.90;;;;;;6740631;88;20253;-75
2020/12/28 12:21:36;;;;;;;2.92;0.65;;;5.80;99.90;;;;;;6742059;88;20192;-75
2020/12/28 12:31:36;;;;;;;2.12;0.82;;;5.70;99.90;;;;;;6740672;88;20205;-74
2020/12/28 12:41:37;;;;;;;2.10;1.00;;;5.70;99.90;;;;;;6748038;88;20239;-75
2020/12/28 12:51:37;;;;;;;2.20;0.60;;;5.80;99.90;;;;;;6736538;88;20206;-75
2020/12/28 13:01:38;;;;;;;2.78;0.85;;;6.00;99.90;;;;;;6736966;88;20206;-75
2020/12/28 13:11:38;;;;;;;1.95;0.50;;;5.80;99.90;;;;;;6743603;88;20633;-75
2020/12/28 13:21:39;;;;;;;2.20;0.98;;;5.90;99.90;;;;;;6742357;88;20680;-75
2020/12/28 13:31:39;;;;;;;3.80;1.00;;;5.80;99.90;;;;;;6749279;88;20237;-75
2020/12/28 13:41:40;;;;;;;2.03;1.10;;;5.80;99.90;;;;;;6743561;88;20189;-75
2020/12/28 13:51:41;;;;;;;2.97;1.20;;;5.80;99.90;;;;;;6750616;88;20252;-75
2020/12/28 14:01:44;;;;;;;2.22;1.00;;;5.80;99.90;;;;;;6747191;88;20225;-75
2020/12/28 14:11:48;;;;;;;2.42;0.88;;;5.60;99.90;;;;;;6744624;88;20224;-75
2020/12/28 14:21:48;;;;;;;2.70;0.80;;;5.40;99.90;;;;;;6746059;88;20686;-75
2020/12/28 14:31:49;;;;;;;2.30;0.80;;;5.30;99.90;;;;;;6756608;88;20192;-75
2020/12/28 14:41:49;;;;;;;1.12;0.50;;;5.30;99.90;;;;;;6760254;88;20323;-75
2020/12/28 14:51:50;;;;;;;1.17;0.50;;;5.30;99.90;;;;;;6747091;88;20219;-75
2020/12/28 15:01:50;;;;;;;1.75;0.60;;;5.30;99.90;;;;;;6737587;88;21063;-75
2020/12/28 15:11:51;;;;;;;2.50;0.70;;;5.30;99.90;;;;;;6746238;88;20709;-75
2020/12/28 15:21:51;;;;;;;1.87;1.10;;;5.30;99.90;;;;;;6743538;88;20601;-75
2020/12/28 15:31:52;;;;;;;6.18;3.05;;;5.30;99.90;;;;;;6742383;88;20897;-75
2020/12/28 15:41:52;;;;;;;2.10;1.10;;;5.30;99.90;;;;;;6745075;88;20312;-75
2020/12/28 15:51:53;;;;;;;2.37;1.02;;;5.20;99.90;;;;;;6742070;88;20592;-73
2020/12/28 16:01:53;;;;;;;1.50;0.70;;;5.20;99.90;;;;;;6738826;88;20199;-73
2020/12/28 16:11:54;;;;;;;2.83;0.80;;;5.10;99.90;;;;;;6756395;88;20201;-73
2020/12/28 16:21:55;;;;;;;2.03;0.90;;;4.90;99.90;;;;;;6745918;88;20220;-73
2020/12/28 16:31:57;;;;;;;1.77;0.40;;;4.90;99.90;;;;;;6744711;88;20243;-73
2020/12/28 16:41:58;;;;;;;0.75;0.30;;;4.90;99.90;;;;;;6746189;88;20193;-75
2020/12/28 16:51:59;;;;;;;0.70;0.30;;;4.90;99.90;;;;;;6746801;88;20671;-75
2020/12/28 17:02:00;;;;;;;0.88;0.30;;;5.00;99.90;;;;;;6752346;88;20313;-75
2020/12/28 17:12:01;;;;;;;1.33;0.40;;;4.90;99.90;;;;;;6745086;88;20950;-75
2020/12/28 17:22:02;;;;;;;2.67;0.45;;;4.60;99.90;;;;;;6742673;88;20184;-75
2020/12/28 17:32:03;;;;;;;2.62;0.80;;;4.70;99.90;;;;;;6743398;88;20660;-75
2020/12/28 17:42:07;;;;;;;2.28;0.70;;;4.70;99.90;;;;;;6744041;88;20221;-75
2020/12/28 17:52:08;;;;;;;5.15;1.80;;;4.70;99.90;;;;;;6746359;88;20206;-74
2020/12/28 18:02:09;;;;;;;3.63;1.30;;;4.70;99.90;;;;;;6746347;87;20593;-74
2020/12/28 18:12:09;;;;;;;3.83;1.45;;;4.70;99.90;;;;;;6750553;88;20513;-74
2020/12/28 18:22:11;;;;;;;2.58;1.27;;;4.60;99.90;;;;;;6751206;88;20649;-74
2020/12/28 18:32:12;;;;;;;2.55;0.93;;;4.50;99.90;;;;;;6747851;88;20664;-74
2020/12/28 18:42:13;;;;;;;2.87;1.05;;;4.30;99.90;;;;;;6750138;88;20206;-74
2020/12/28 18:52:16;;;;;;;3.45;1.10;;;4.20;99.90;;;;;;6743241;88;20247;-74
2020/12/28 19:02:17;;;;;;;2.72;1.52;;;4.00;99.90;;;;;;6749108;88;20200;-75
2020/12/28 19:12:17;;;;;;;3.47;1.60;;;3.80;99.90;;;;;;6756935;88;20181;-75
2020/12/28 19:22:18;;;;;;;2.70;1.37;;;3.60;99.90;;;;;;6750518;88;20202;-74
2020/12/28 19:32:18;;;;;;;2.20;1.30;;;3.60;99.90;;;;;;6760041;88;20200;-75
2020/12/28 19:42:20;;;;;;;2.45;1.23;;;3.40;99.90;;;;;;6742597;88;20178;-75
2020/12/28 19:52:20;;;;;;;2.55;1.25;;;3.30;99.90;;;;;;6742846;88;20277;-76
2020/12/28 20:02:21;;;;;;;3.37;1.65;;;3.10;99.90;;;;;;6743982;88;20251;-75
2020/12/28 20:12:21;;;;;;;3.15;1.60;;;3.10;99.90;;;;;;6744496;88;20222;-75
2020/12/28 20:22:22;;;;;;;4.20;1.92;;;2.90;99.90;;;;;;6744160;88;20336;-75
2020/12/28 20:32:23;;;;;;;9.35;4.03;;;2.70;99.90;;;;;;6741219;88;20170;-75
2020/12/28 20:42:24;;;;;;;2.75;1.40;;;2.80;99.90;;;;;;6752013;88;20656;-76
2020/12/28 20:52:24;;;;;;;3.25;1.70;;;2.60;99.90;;;;;;6744037;88;20234;-75
2020/12/28 21:02:25;;;;;;;4.70;2.05;;;2.60;99.90;;;;;;6740621;87;20209;-75
2020/12/28 21:12:26;;;;;;;4.70;2.33;;;2.60;99.90;;;;;;6738673;88;20185;-75
2020/12/28 21:22:26;;;;;;;5.25;2.50;;;2.30;99.90;;;;;;6739066;88;20278;-75
2020/12/28 21:32:27;;;;;;;4.18;2.00;;;2.40;99.90;;;;;;6745322;88;20346;-76
2020/12/28 21:42:28;;;;;;;4.18;2.12;;;2.40;99.90;;;;;;6745427;88;20203;-75
2020/12/28 21:52:28;;;;;;;4.57;2.37;;;2.50;99.90;;;;;;6745541;88;20193;-75
2020/12/28 22:02:35;;;;;;;7.32;3.20;;;2.40;99.90;;;;;;6743946;87;20656;-74
2020/12/28 22:12:51;;;;;;;6.93;3.30;;;2.10;99.90;;;;;;6746216;88;20232;-75
2020/12/28 22:22:52;;;;;;;8.40;3.63;;;1.90;99.90;;;;;;6741414;88;20180;-78
2020/12/28 22:32:52;;;;;;;8.43;3.53;;;1.80;99.90;;;;;;6742534;88;20765;-75
2020/12/28 22:42:53;;;;;;;6.60;3.50;;;1.80;99.90;;;;;;6741748;88;20184;-74
2020/12/28 22:52:53;;;;;;;6.62;3.58;;;1.60;99.90;;;;;;6742707;88;20189;-74
2020/12/28 23:02:55;;;;;;;7.97;3.35;;;1.40;99.90;;;;;;6747704;88;20628;-74
2020/12/28 23:12:56;;;;;;;5.47;2.80;;;1.60;99.90;;;;;;6742909;88;20653;-74
2020/12/28 23:22:57;;;;;;;6.07;2.70;;;1.70;99.90;;;;;;6739467;88;20214;-75
2020/12/28 23:32:57;;;;;;;5.30;3.10;;;1.80;99.90;;;;;;6739869;88;20202;-74
2020/12/28 23:42:58;;;;;;;6.32;2.80;;;1.80;99.90;;;;;;6734050;88;20319;-75
2020/12/28 23:52:58;;;;;;;5.00;2.80;;;1.60;99.90;;;;;;6737495;88;20190;-74
